createdAt,value
2022-10-09T00:00:34.987Z,63.95
2022-10-09T00:03:04.084Z,63.69
2022-10-09T00:05:33.008Z,63.78
2022-10-09T00:08:02.091Z,64.37
2022-10-09T00:10:31.200Z,64.84
2022-10-09T00:13:00.168Z,65.53
2022-10-09T00:15:29.041Z,65.41
2022-10-09T00:17:58.071Z,65.70
2022-10-09T00:20:26.881Z,66.15
2022-10-09T00:22:56.749Z,66.73
2022-10-09T00:25:26.131Z,67.17
2022-10-09T00:27:55.181Z,67.53
2022-10-09T00:30:24.807Z,68.73
2022-10-09T00:32:54.603Z,69.06
2022-10-09T00:35:23.776Z,69.99
2022-10-09T00:37:52.925Z,71.26
2022-10-09T00:40:21.899Z,72.21
2022-10-09T00:42:58.258Z,71.95
2022-10-09T00:45:28.361Z,71.67
2022-10-09T00:48:01.774Z,71.67
2022-10-09T00:50:50.886Z,71.77
2022-10-09T00:53:23.507Z,72.09
2022-10-09T00:55:53.376Z,72.64
2022-10-09T00:58:24.447Z,72.51
2022-10-09T01:00:54.284Z,73.01
2022-10-09T01:03:23.057Z,74.35
2022-10-09T01:06:02.152Z,74.90
2022-10-09T01:08:48.185Z,74.48
2022-10-09T01:11:36.235Z,73.85
2022-10-09T01:14:15.515Z,74.22
2022-10-09T01:17:10.773Z,74.25
2022-10-09T01:19:58.665Z,74.45
2022-10-09T01:23:03.843Z,73.86
2022-10-09T01:26:00.692Z,73.57
2022-10-09T01:28:31.600Z,72.91
2022-10-09T01:31:04.783Z,71.89
2022-10-09T01:33:34.758Z,71.22
2022-10-09T01:36:05.889Z,71.31
2022-10-09T01:38:37.274Z,70.59
2022-10-09T01:41:44.533Z,70.08
2022-10-09T01:45:10.425Z,69.68
2022-10-09T01:47:52.634Z,68.90
2022-10-09T01:50:31.015Z,68.55
2022-10-09T01:53:07.986Z,67.84
2022-10-09T01:56:15.764Z,67.06
2022-10-09T01:58:59.270Z,65.56
2022-10-09T02:01:33.508Z,64.94
2022-10-09T02:04:06.967Z,64.66
2022-10-09T02:06:37.916Z,63.21
2022-10-09T02:09:11.625Z,61.66
2022-10-09T02:11:43.577Z,60.85
2022-10-09T02:14:12.715Z,60.29
2022-10-09T02:16:43.359Z,58.95
2022-10-09T02:19:26.922Z,58.84
2022-10-09T02:22:01.970Z,58.82
2022-10-09T02:24:31.438Z,57.28
2022-10-09T02:27:01.242Z,55.68
2022-10-09T02:29:30.552Z,55.51
2022-10-09T02:31:59.629Z,54.59
2022-10-09T02:34:28.797Z,54.45
2022-10-09T02:36:57.633Z,54.77
2022-10-09T02:39:26.926Z,53.17
2022-10-09T02:41:55.777Z,53.62
2022-10-09T02:44:24.901Z,53.32
2022-10-09T02:46:53.993Z,53.35
2022-10-09T02:49:23.048Z,53.88
2022-10-09T02:51:51.936Z,53.41
2022-10-09T02:54:21.262Z,53.05
2022-10-09T02:56:50.064Z,52.37
2022-10-09T02:59:19.221Z,52.90
2022-10-09T03:01:48.212Z,51.72
2022-10-09T03:04:17.577Z,51.21
2022-10-09T03:06:46.401Z,51.79
2022-10-09T03:09:15.592Z,50.89
2022-10-09T03:11:44.304Z,49.69
2022-10-09T03:14:13.571Z,49.36
2022-10-09T03:16:42.456Z,50.73
2022-10-09T03:19:11.524Z,48.84
2022-10-09T03:21:40.410Z,48.91
2022-10-09T03:24:09.969Z,47.85
2022-10-09T03:26:38.932Z,47.89
2022-10-09T03:29:07.814Z,50.19
2022-10-09T03:31:51.934Z,48.29
2022-10-09T03:34:22.057Z,47.40
2022-10-09T03:36:51.391Z,47.70
2022-10-09T03:39:20.405Z,47.22
2022-10-09T03:41:49.292Z,47.76
2022-10-09T03:44:18.892Z,48.06
2022-10-09T03:46:47.843Z,48.59
2022-10-09T03:49:18.242Z,49.47
2022-10-09T03:51:47.439Z,51.96
2022-10-09T03:54:16.496Z,50.25
2022-10-09T03:56:45.726Z,52.45
2022-10-09T03:59:14.657Z,51.95
2022-10-09T04:01:43.724Z,52.36
2022-10-09T04:04:12.796Z,53.02
2022-10-09T04:06:41.919Z,53.79
2022-10-09T04:09:10.936Z,53.83
2022-10-09T04:11:40.139Z,53.98
2022-10-09T04:14:08.981Z,54.48
2022-10-09T04:16:38.392Z,53.99
2022-10-09T04:19:07.413Z,55.36
2022-10-09T04:21:36.345Z,64.06
2022-10-09T04:24:05.772Z,56.09
2022-10-09T04:26:34.902Z,57.68
2022-10-09T04:29:03.646Z,55.26
2022-10-09T04:31:34.184Z,54.79
2022-10-09T04:34:03.844Z,59.42
2022-10-09T04:36:33.293Z,54.90
2022-10-09T04:39:02.358Z,53.41
2022-10-09T04:41:34.750Z,55.66
2022-10-09T04:44:07.456Z,54.57
2022-10-09T04:46:36.347Z,57.43
2022-10-09T04:49:05.369Z,56.78
2022-10-09T04:51:34.476Z,57.02
2022-10-09T04:54:03.751Z,62.70
2022-10-09T04:56:32.745Z,56.82
2022-10-09T04:59:01.737Z,59.36
2022-10-09T05:01:37.087Z,55.99
2022-10-09T05:04:07.260Z,55.98
2022-10-09T05:06:36.363Z,55.34
2022-10-09T05:09:05.543Z,51.32
2022-10-09T05:11:34.290Z,53.88
2022-10-09T05:14:03.527Z,53.34
2022-10-09T05:16:44.746Z,54.28
2022-10-09T05:19:22.514Z,53.25
2022-10-09T05:21:51.502Z,55.18
2022-10-09T05:24:22.495Z,51.63
2022-10-09T05:26:51.813Z,50.69
2022-10-09T05:29:21.182Z,51.78
2022-10-09T05:31:50.468Z,50.45
2022-10-09T05:34:19.257Z,50.38
2022-10-09T05:36:48.690Z,46.24
2022-10-09T05:39:18.249Z,48.28
2022-10-09T05:41:47.251Z,46.61
2022-10-09T05:44:16.408Z,46.05
2022-10-09T05:46:45.902Z,47.53
2022-10-09T05:49:14.765Z,43.48
2022-10-09T05:51:46.409Z,50.93
2022-10-09T05:54:17.966Z,43.73
2022-10-09T05:56:47.700Z,42.83
2022-10-09T05:59:20.627Z,42.38
2022-10-09T06:01:52.905Z,42.33
2022-10-09T06:04:24.531Z,44.96
2022-10-09T06:06:54.971Z,51.05
2022-10-09T06:09:26.448Z,42.62
2022-10-09T06:11:56.611Z,42.21
2022-10-09T06:14:26.056Z,41.24
2022-10-09T06:16:55.952Z,42.91
2022-10-09T06:19:25.164Z,42.59
2022-10-09T06:21:53.979Z,40.97
2022-10-09T06:24:28.612Z,41.80
2022-10-09T06:26:59.115Z,39.08
2022-10-09T06:29:28.263Z,40.00
2022-10-09T06:31:57.463Z,43.74
2022-10-09T06:34:26.413Z,42.16
2022-10-09T06:36:56.007Z,40.32
2022-10-09T06:39:25.089Z,42.80
2022-10-09T06:41:54.070Z,40.92
2022-10-09T06:44:39.353Z,39.54
2022-10-09T06:47:08.340Z,42.33
2022-10-09T06:49:37.135Z,39.97
2022-10-09T06:52:06.379Z,40.10
2022-10-09T06:54:35.276Z,42.88
2022-10-09T06:57:04.322Z,42.58
2022-10-09T06:59:33.225Z,43.66
2022-10-09T07:02:02.430Z,41.16
2022-10-09T07:04:31.403Z,41.23
2022-10-09T07:07:00.786Z,42.21
2022-10-09T07:09:29.592Z,40.59
2022-10-09T07:11:58.958Z,41.26
2022-10-09T07:14:27.931Z,41.68
2022-10-09T07:16:57.003Z,45.73
2022-10-09T07:19:25.740Z,40.53
2022-10-09T07:21:54.905Z,39.77
2022-10-09T07:24:25.636Z,41.60
2022-10-09T07:26:58.934Z,43.47
2022-10-09T07:29:28.047Z,43.39
2022-10-09T07:31:56.778Z,42.62
2022-10-09T07:34:25.791Z,40.61
2022-10-09T07:36:54.731Z,38.99
2022-10-09T07:39:23.873Z,41.14
2022-10-09T07:41:53.334Z,41.13
2022-10-09T07:44:22.304Z,41.25
2022-10-09T07:46:52.675Z,42.59
2022-10-09T07:49:23.024Z,39.98
2022-10-09T07:51:52.220Z,41.13
2022-10-09T07:54:20.944Z,39.22
2022-10-09T07:56:50.158Z,40.73
2022-10-09T07:59:18.998Z,38.86
2022-10-09T08:01:48.021Z,39.16
2022-10-09T08:04:16.974Z,39.90
2022-10-09T08:06:45.920Z,40.69
2022-10-09T08:09:15.009Z,41.71
2022-10-09T08:11:44.170Z,38.38
2022-10-09T08:14:19.308Z,40.66
2022-10-09T08:16:49.358Z,42.50
2022-10-09T08:19:18.069Z,40.61
2022-10-09T08:21:47.224Z,39.72
2022-10-09T08:24:16.176Z,39.35
2022-10-09T08:26:45.590Z,41.11
2022-10-09T08:29:17.943Z,39.82
2022-10-09T08:31:48.137Z,39.20
2022-10-09T08:34:16.975Z,43.02
2022-10-09T08:36:46.013Z,39.44
2022-10-09T08:39:15.477Z,43.50
2022-10-09T08:41:48.718Z,41.90
2022-10-09T08:44:41.735Z,41.29
2022-10-09T08:47:14.256Z,41.22
2022-10-09T08:49:49.513Z,43.53
2022-10-09T08:52:23.028Z,39.04
2022-10-09T08:54:53.895Z,40.78
2022-10-09T08:57:24.646Z,41.52
2022-10-09T08:59:53.695Z,41.14
2022-10-09T09:02:31.592Z,42.77
2022-10-09T09:05:23.060Z,41.92
2022-10-09T09:08:36.941Z,41.88
2022-10-09T09:11:25.088Z,43.18
2022-10-09T09:14:20.506Z,44.06
2022-10-09T09:17:04.061Z,41.07
2022-10-09T09:19:51.342Z,47.59
2022-10-09T09:22:20.692Z,42.65
2022-10-09T09:24:58.365Z,46.68
2022-10-09T09:27:37.820Z,44.47
2022-10-09T09:30:25.610Z,47.82
2022-10-09T09:33:12.770Z,44.55
2022-10-09T09:36:01.286Z,44.94
2022-10-09T09:38:30.287Z,43.57
2022-10-09T09:40:59.160Z,46.45
2022-10-09T09:43:28.966Z,43.50
2022-10-09T09:46:01.057Z,44.53
2022-10-09T09:48:46.753Z,47.13
2022-10-09T09:51:37.088Z,44.54
2022-10-09T09:54:24.146Z,43.01
2022-10-09T09:57:12.805Z,43.09
2022-10-09T09:59:45.111Z,43.72
2022-10-09T10:02:16.329Z,42.51
2022-10-09T10:05:10.587Z,45.75
2022-10-09T10:07:40.539Z,44.29
2022-10-09T10:10:21.130Z,41.54
2022-10-09T10:12:54.563Z,41.61
2022-10-09T10:15:32.814Z,41.31
2022-10-09T10:18:14.392Z,43.59
2022-10-09T10:20:48.816Z,43.31
2022-10-09T10:23:39.123Z,44.68
2022-10-09T10:26:38.879Z,43.97
2022-10-09T10:29:33.209Z,45.31
2022-10-09T10:32:30.160Z,47.45
2022-10-09T10:35:04.689Z,42.72
2022-10-09T10:38:00.157Z,43.95
2022-10-09T10:40:33.868Z,45.97
2022-10-09T10:43:11.958Z,43.30
2022-10-09T10:45:41.082Z,45.09
2022-10-09T10:48:25.787Z,44.74
2022-10-09T10:51:21.691Z,43.47
2022-10-09T10:54:21.086Z,43.31
2022-10-09T10:57:05.972Z,44.98
2022-10-09T11:00:12.027Z,43.76
2022-10-09T11:03:08.266Z,44.67
2022-10-09T11:06:16.103Z,45.38
2022-10-09T11:08:56.619Z,45.26
2022-10-09T11:11:49.782Z,44.75
2022-10-09T11:14:33.029Z,47.03
2022-10-09T11:17:15.487Z,48.75
2022-10-09T11:20:03.627Z,49.33
2022-10-09T11:23:10.661Z,49.77
2022-10-09T11:26:01.823Z,50.14
2022-10-09T11:28:40.478Z,50.57
2022-10-09T11:31:21.247Z,51.35
2022-10-09T11:33:59.048Z,54.30
2022-10-09T11:36:48.535Z,57.20
2022-10-09T11:39:24.939Z,55.71
2022-10-09T11:41:56.337Z,55.46
2022-10-09T11:44:37.475Z,56.41
2022-10-09T11:47:16.849Z,58.69
2022-10-09T11:49:56.982Z,60.27
2022-10-09T11:52:36.267Z,62.32
2022-10-09T11:55:37.971Z,63.08
2022-10-09T11:58:16.038Z,62.72
2022-10-09T12:00:47.240Z,64.53
2022-10-09T12:03:42.920Z,65.57
2022-10-09T12:06:17.770Z,65.70
2022-10-09T12:09:09.442Z,68.06
2022-10-09T12:11:38.563Z,68.82
2022-10-09T12:14:09.727Z,68.55
2022-10-09T12:16:48.258Z,70.33
2022-10-09T12:19:18.931Z,70.22
2022-10-09T12:22:03.415Z,71.14
2022-10-09T12:25:00.434Z,71.22
2022-10-09T12:27:35.981Z,71.38
2022-10-09T12:30:15.502Z,72.50
2022-10-09T12:33:29.400Z,72.93
2022-10-09T12:36:14.367Z,73.47
2022-10-09T12:38:44.358Z,73.10
2022-10-09T12:41:22.948Z,73.02
2022-10-09T12:43:55.902Z,72.78
2022-10-09T12:46:40.337Z,72.01
2022-10-09T12:49:20.957Z,69.48
2022-10-09T12:51:56.745Z,68.34
2022-10-09T12:54:27.446Z,67.55
2022-10-09T12:56:58.803Z,67.46
2022-10-09T12:59:29.951Z,69.25
2022-10-09T13:02:01.514Z,68.66
2022-10-09T13:04:33.591Z,68.49
2022-10-09T13:07:17.033Z,68.61
2022-10-09T13:09:47.410Z,71.98
2022-10-09T13:12:22.926Z,78.87
2022-10-09T13:15:00.708Z,90.00
2022-10-09T13:17:34.598Z,95.75
2022-10-09T13:20:11.969Z,97.33
2022-10-09T13:22:41.284Z,100.00
2022-10-09T13:25:10.763Z,100.00
2022-10-09T13:27:41.062Z,100.00
2022-10-09T13:30:12.511Z,100.00
2022-10-09T13:32:41.754Z,100.00
2022-10-09T13:35:10.821Z,100.00
2022-10-09T13:37:39.897Z,100.00
2022-10-09T13:40:13.854Z,100.00
2022-10-09T13:42:44.114Z,100.00
2022-10-09T13:45:13.275Z,100.00
2022-10-09T13:47:42.130Z,100.00
2022-10-09T13:50:14.127Z,100.00
2022-10-09T13:52:43.394Z,100.00
2022-10-09T13:55:13.014Z,100.00
2022-10-09T13:57:41.978Z,100.00
2022-10-09T14:00:11.501Z,100.00
2022-10-09T14:02:43.245Z,100.00
2022-10-09T14:05:13.258Z,100.00
2022-10-09T14:07:41.927Z,100.00
2022-10-09T14:10:11.162Z,100.00
2022-10-09T14:12:39.930Z,100.00
2022-10-09T14:15:09.059Z,100.00
2022-10-09T14:17:37.674Z,100.00
2022-10-09T14:20:07.620Z,100.00
2022-10-09T14:22:36.426Z,100.00
2022-10-09T14:25:05.715Z,100.00
2022-10-09T14:30:09.100Z,100.00
2022-10-09T14:32:37.893Z,100.00
2022-10-09T14:35:07.075Z,100.00
2022-10-09T14:37:43.063Z,100.00
2022-10-09T14:40:12.724Z,100.00
2022-10-09T14:42:41.384Z,100.00
2022-10-09T14:45:11.244Z,100.00
2022-10-09T14:47:39.979Z,100.00
2022-10-09T14:50:09.429Z,100.00
2022-10-09T14:52:38.159Z,100.00
2022-10-09T14:55:07.245Z,100.00
2022-10-09T14:57:36.025Z,100.00
2022-10-09T15:00:06.466Z,100.00
2022-10-09T15:02:35.519Z,100.00
2022-10-09T15:05:05.048Z,100.00
2022-10-09T15:07:35.282Z,100.00
2022-10-09T15:10:04.001Z,100.00
2022-10-09T15:12:32.796Z,100.00
2022-10-09T15:15:01.437Z,100.00
2022-10-09T15:17:30.169Z,100.00
2022-10-09T15:19:58.785Z,100.00
2022-10-09T15:22:28.118Z,100.00
2022-10-09T15:24:56.663Z,100.00
2022-10-09T15:27:25.669Z,100.00
2022-10-09T15:29:54.585Z,100.00
2022-10-09T15:32:24.929Z,100.00
2022-10-09T15:34:53.724Z,100.00
2022-10-09T15:37:22.599Z,100.00
2022-10-09T15:39:51.450Z,100.00
2022-10-09T15:42:20.083Z,100.00
2022-10-09T15:44:49.413Z,100.00
2022-10-09T15:47:27.120Z,100.00
2022-10-09T15:50:07.561Z,100.00
2022-10-09T15:52:36.240Z,100.00
2022-10-09T15:55:05.265Z,100.00
2022-10-09T15:57:33.973Z,100.00
2022-10-09T16:00:02.770Z,100.00
2022-10-09T16:02:32.545Z,100.00
2022-10-09T16:05:01.454Z,100.00
2022-10-09T16:07:30.105Z,100.00
2022-10-09T16:09:59.825Z,100.00
2022-10-09T16:12:29.112Z,100.00
2022-10-09T16:14:57.857Z,100.00
2022-10-09T16:17:26.497Z,100.00
2022-10-09T16:19:55.272Z,100.00
2022-10-09T16:22:23.949Z,100.00
2022-10-09T16:24:52.728Z,100.00
2022-10-09T16:27:21.479Z,100.00
2022-10-09T16:29:50.418Z,100.00
2022-10-09T16:32:19.151Z,100.00
2022-10-09T16:34:50.993Z,100.00
2022-10-09T16:37:19.860Z,100.00
2022-10-09T16:39:50.186Z,100.00
2022-10-09T16:42:19.111Z,100.00
2022-10-09T16:44:49.123Z,100.00
2022-10-09T16:47:18.440Z,100.00
2022-10-09T16:49:47.200Z,100.00
2022-10-09T16:52:16.321Z,100.00
2022-10-09T16:54:44.956Z,100.00
2022-10-09T16:57:14.071Z,100.00
2022-10-09T16:59:45.110Z,100.00
2022-10-09T17:02:14.825Z,100.00
2022-10-09T17:04:44.077Z,100.00
2022-10-09T17:07:13.667Z,100.00
2022-10-09T17:09:42.655Z,100.00
2022-10-09T17:12:16.714Z,100.00
2022-10-09T17:14:45.737Z,100.00
2022-10-09T17:17:14.717Z,100.00
2022-10-09T17:19:44.479Z,100.00
2022-10-09T17:22:13.318Z,100.00
2022-10-09T17:24:42.128Z,100.00
2022-10-09T17:27:10.912Z,100.00
2022-10-09T17:29:39.990Z,100.00
2022-10-09T17:32:10.289Z,100.00
2022-10-09T17:34:43.892Z,100.00
2022-10-09T17:37:13.617Z,100.00
2022-10-09T17:39:44.792Z,100.00
2022-10-09T17:42:15.743Z,100.00
2022-10-09T17:44:44.475Z,100.00
2022-10-09T17:47:13.589Z,100.00
2022-10-09T17:49:42.379Z,100.00
2022-10-09T17:52:11.324Z,100.00
2022-10-09T17:54:40.088Z,100.00
2022-10-09T17:57:12.886Z,100.00
2022-10-09T17:59:41.910Z,100.00
2022-10-09T18:02:11.874Z,100.00
2022-10-09T18:04:40.722Z,100.00
2022-10-09T18:07:09.255Z,100.00
2022-10-09T18:09:38.342Z,100.00
2022-10-09T18:12:07.037Z,100.00
2022-10-09T18:14:36.094Z,100.00
2022-10-09T18:17:07.788Z,100.00
2022-10-09T18:19:36.604Z,100.00
2022-10-09T18:22:05.362Z,100.00
2022-10-09T18:24:34.407Z,100.00
2022-10-09T18:27:03.070Z,100.00
2022-10-09T18:29:31.920Z,100.00
2022-10-09T18:32:00.559Z,100.00
2022-10-09T18:34:29.393Z,100.00
2022-10-09T18:36:59.391Z,100.00
2022-10-09T18:39:29.930Z,100.00
2022-10-09T18:41:59.213Z,100.00
2022-10-09T18:44:28.317Z,100.00
2022-10-09T18:46:59.911Z,100.00
2022-10-09T18:49:32.651Z,100.00
2022-10-09T18:52:03.592Z,100.00
2022-10-09T18:54:32.645Z,100.00
2022-10-09T18:57:02.544Z,100.00
2022-10-09T18:59:31.937Z,100.00
2022-10-09T19:02:00.551Z,100.00
2022-10-09T19:04:30.027Z,100.00
2022-10-09T19:06:58.906Z,100.00
2022-10-09T19:09:28.393Z,100.00
2022-10-09T19:11:57.527Z,100.00
2022-10-09T19:14:26.640Z,100.00
2022-10-09T19:16:55.290Z,100.00
2022-10-09T19:19:24.196Z,100.00
2022-10-09T19:21:53.381Z,100.00
2022-10-09T19:24:22.486Z,100.00
2022-10-09T19:26:51.133Z,100.00
2022-10-09T19:29:20.024Z,100.00
2022-10-09T19:31:48.727Z,100.00
2022-10-09T19:34:18.055Z,100.00
2022-10-09T19:36:50.635Z,100.00
2022-10-09T19:39:20.478Z,100.00
2022-10-09T19:41:50.569Z,100.00
2022-10-09T19:44:20.084Z,100.00
2022-10-09T19:46:49.309Z,100.00
2022-10-09T19:49:18.430Z,100.00
2022-10-09T19:51:47.270Z,100.00
2022-10-09T19:54:16.168Z,100.00
2022-10-09T19:56:44.758Z,100.00
2022-10-09T19:59:14.257Z,100.00
2022-10-09T20:01:42.894Z,100.00
2022-10-09T20:04:12.882Z,100.00
2022-10-09T20:06:43.359Z,100.00
2022-10-09T20:09:13.050Z,100.00
2022-10-09T20:11:42.077Z,100.00
2022-10-09T20:14:11.762Z,100.00
2022-10-09T20:16:40.917Z,100.00
2022-10-09T20:19:09.730Z,100.00
2022-10-09T20:21:38.542Z,100.00
2022-10-09T20:24:07.533Z,100.00
2022-10-09T20:26:39.684Z,100.00
2022-10-09T20:29:11.232Z,100.00
2022-10-09T20:31:40.049Z,100.00
2022-10-09T20:34:09.329Z,100.00
2022-10-09T20:36:40.021Z,100.00
2022-10-09T20:39:13.326Z,100.00
2022-10-09T20:41:43.965Z,100.00
2022-10-09T20:44:13.372Z,100.00
2022-10-09T20:46:42.636Z,100.00
2022-10-09T20:49:15.025Z,100.00
2022-10-09T20:51:44.356Z,100.00
2022-10-09T20:54:17.642Z,100.00
2022-10-09T20:56:47.451Z,100.00
2022-10-09T20:59:17.364Z,100.00
2022-10-09T21:01:47.285Z,100.00
2022-10-09T21:04:16.144Z,100.00
2022-10-09T21:06:45.366Z,100.00
2022-10-09T21:09:14.198Z,100.00
2022-10-09T21:11:44.700Z,100.00
2022-10-09T21:14:13.684Z,100.00
2022-10-09T21:16:42.319Z,100.00
2022-10-09T21:19:13.098Z,98.91
2022-10-09T21:21:41.841Z,96.53
2022-10-09T21:24:11.140Z,97.51
2022-10-09T21:26:40.224Z,100.00
2022-10-09T21:29:09.137Z,100.00
2022-10-09T21:31:37.927Z,100.00
2022-10-09T21:34:07.127Z,100.00
2022-10-09T21:37:16.487Z,100.00
2022-10-09T21:39:40.233Z,100.00
2022-10-09T21:42:09.072Z,100.00
2022-10-09T21:44:37.818Z,100.00
2022-10-09T21:47:06.472Z,100.00
2022-10-09T21:49:35.462Z,100.00
2022-10-09T21:52:04.057Z,100.00
2022-10-09T21:54:32.946Z,100.00
2022-10-09T21:57:02.238Z,99.16
2022-10-09T21:59:31.150Z,95.39
2022-10-09T22:01:59.946Z,91.45
2022-10-09T22:04:28.968Z,86.86
2022-10-09T22:06:57.563Z,87.11
2022-10-09T22:09:26.603Z,89.82
2022-10-09T22:11:55.500Z,91.24
2022-10-09T22:14:24.720Z,93.02
2022-10-09T22:16:53.294Z,94.73
2022-10-09T22:19:22.311Z,96.70
2022-10-09T22:21:50.893Z,99.14
2022-10-09T22:24:19.686Z,99.39
2022-10-09T22:30:12.591Z,100.00
2022-10-09T22:33:00.526Z,100.00
2022-10-09T22:35:29.792Z,100.00
2022-10-09T22:37:59.197Z,100.00
2022-10-09T22:40:30.511Z,100.00
2022-10-09T22:42:59.614Z,100.00
2022-10-09T22:45:28.445Z,100.00
2022-10-09T22:47:58.290Z,100.00
2022-10-09T22:50:27.047Z,100.00
2022-10-09T22:52:56.238Z,100.00
2022-10-09T22:58:51.684Z,100.00
2022-10-09T23:01:34.095Z,100.00
2022-10-09T23:04:11.721Z,100.00
2022-10-09T23:06:41.880Z,100.00
2022-10-09T23:09:25.838Z,100.00
2022-10-09T23:11:56.160Z,100.00
2022-10-09T23:14:25.904Z,100.00
2022-10-09T23:16:54.966Z,100.00
2022-10-09T23:20:00.796Z,100.00
2022-10-09T23:22:42.037Z,100.00
2022-10-09T23:25:11.524Z,100.00
2022-10-09T23:27:40.516Z,100.00
2022-10-09T23:30:10.113Z,100.00
2022-10-09T23:32:38.976Z,100.00
2022-10-09T23:35:08.517Z,100.00
2022-10-09T23:37:37.355Z,100.00
2022-10-09T23:40:06.821Z,100.00
2022-10-09T23:42:35.716Z,100.00
2022-10-09T23:45:05.235Z,100.00
2022-10-09T23:47:34.177Z,100.00
2022-10-09T23:50:03.279Z,100.00
2022-10-09T23:53:28.367Z,100.00
2022-10-09T23:55:57.442Z,100.00
2022-10-09T23:58:26.368Z,100.00
